KBWG/BWG METAR and TAF weather

Enter ICAO airport designator
Station Type Date Time Source
KBWG METAR 2022/06/30 12:53 UTC NOAA

KBWG 301253Z AUTO 00000KT 10SM CLR 24/15 A3019 RMK AO2 SLP217 T02390150


Station Type Date Time Source
KBWG Decoded METAR 2022/06/30 12:53 UTC NOAA

BOWLING GREEN-WARREN CO RGNL, KY, United States (KBWG) 36-58N 086-25W 161M
Jun 30, 2022 - 08:53 AM EDT / 2022.06.30 1253 UTC
Wind: Calm:0
Visibility: 10 mile(s):0
Sky conditions: clear
Temperature: 75.0 F (23.9 C)
Dew Point: 59.0 F (15.0 C)
Relative Humidity: 57%
Pressure (altimeter): 30.19 in. Hg (1022 hPa)
ob: KBWG 301253Z AUTO 00000KT 10SM CLR 24/15 A3019 RMK AO2 SLP217 T02390150
cycle: 13

Station Type Date Time Source
KBWG TAF 2022/06/30 12:22 UTC NOAA

TAF KBWG 301120Z 3012/0112 00000KT P6SM SKC
FM301600 20007KT P6SM SCT050
FM302000 19008KT P6SM VCSH BKN050
FM010200 20004KT P6SM SCT250

Example: see airport list